Oscar, Oklahoma
Current Conditions -  °F | °C
As of 12:35 AM on Monday 24 Nov 2014 (Local Time) from K0F2 Reporting Station
Clear Clear  
Wind Chill: 41°   Ceiling: Unl
Heat Index: 46°   Visibility: 10mi
Dew Point: 36°   Wind: 8mph
Humidity: 69%   Direction: 290°WNW
Pressure: 29.85"   Gusts: NA
Location:  33.98°N, 97.75°W
Report Text: K0F2 240635Z AUTO 29007KT 10SM CLR 08/02 A2985 RMK AO2 T00750021
Loading
Personal Weather Stations






























Interactive Weather Map New forecast layout! Learn more

10-Day Weather Forecast

Advertisements
Track Severe Weather on mobile